sensor_id;sensor_type;location;lat;lon;timestamp;pressure;altitude;pressure_sealevel;temperature;humidity
18784;BME280;9520;50.954;6.968;2024-01-30T00:00:18;102198.78;;;15.62;48.39
18784;BME280;9520;50.954;6.968;2024-01-30T00:00:40;102189.94;;;15.60;48.49
18784;BME280;9520;50.954;6.968;2024-01-30T00:01:03;102190.81;;;15.62;48.55
18784;BME280;9520;50.954;6.968;2024-01-30T00:01:25;102198.72;;;15.66;48.56
18784;BME280;9520;50.954;6.968;2024-01-30T00:01:46;102189.84;;;15.69;48.61
18784;BME280;9520;50.954;6.968;2024-01-30T00:02:08;102196.06;;;15.66;48.34
18784;BME280;9520;50.954;6.968;2024-01-30T00:02:31;102192.63;;;15.57;48.45
18784;BME280;9520;50.954;6.968;2024-01-30T00:02:53;102196.19;;;15.57;48.42
18784;BME280;9520;50.954;6.968;2024-01-30T00:03:15;102189.13;;;15.50;48.81
18784;BME280;9520;50.954;6.968;2024-01-30T00:03:37;102191.81;;;15.51;48.70
18784;BME280;9520;50.954;6.968;2024-01-30T00:03:59;102196.31;;;15.43;48.76
18784;BME280;9520;50.954;6.968;2024-01-30T00:04:21;102182.97;;;15.46;48.78
18784;BME280;9520;50.954;6.968;2024-01-30T00:04:42;102182.06;;;15.47;48.66
18784;BME280;9520;50.954;6.968;2024-01-30T00:05:05;102185.59;;;15.49;48.72
18784;BME280;9520;50.954;6.968;2024-01-30T00:05:27;102182.97;;;15.48;48.77
18784;BME280;9520;50.954;6.968;2024-01-30T00:05:49;102180.34;;;15.43;48.80
18784;BME280;9520;50.954;6.968;2024-01-30T00:06:11;102188.28;;;15.46;48.85
18784;BME280;9520;50.954;6.968;2024-01-30T00:06:33;102186.47;;;15.50;48.91
18784;BME280;9520;50.954;6.968;2024-01-30T00:06:54;102191.75;;;15.56;48.82
18784;BME280;9520;50.954;6.968;2024-01-30T00:07:16;102182.84;;;15.60;48.59
18784;BME280;9520;50.954;6.968;2024-01-30T00:07:38;102191.75;;;15.56;48.60
18784;BME280;9520;50.954;6.968;2024-01-30T00:08:01;102185.59;;;15.49;49.03
18784;BME280;9520;50.954;6.968;2024-01-30T00:08:24;102193.66;;;15.43;48.89
18784;BME280;9520;50.954;6.968;2024-01-30T00:08:45;102196.31;;;15.43;48.95
18784;BME280;9520;50.954;6.968;2024-01-30T00:09:10;102183.03;;;15.40;48.95
18784;BME280;9520;50.954;6.968;2024-01-30T00:09:32;102184.75;;;15.46;49.01
18784;BME280;9520;50.954;6.968;2024-01-30T00:09:53;102190.09;;;15.43;48.92
18784;BME280;9520;50.954;6.968;2024-01-30T00:10:16;102183.00;;;15.43;49.03
18784;BME280;9520;50.954;6.968;2024-01-30T00:10:38;102185.63;;;15.46;48.90
18784;BME280;9520;50.954;6.968;2024-01-30T00:10:59;102180.28;;;15.54;48.95
18784;BME280;9520;50.954;6.968;2024-01-30T00:11:22;102183.78;;;15.58;48.74
18784;BME280;9520;50.954;6.968;2024-01-30T00:11:45;102188.16;;;15.62;48.74
18784;BME280;9520;50.954;6.968;2024-01-30T00:12:09;102184.56;;;15.64;48.49
18784;BME280;9520;50.954;6.968;2024-01-30T00:12:31;102178.34;;;15.68;48.41
18784;BME280;9520;50.954;6.968;2024-01-30T00:12:53;102181.88;;;15.69;48.49
18784;BME280;9520;50.954;6.968;2024-01-30T00:13:15;102177.47;;;15.65;48.50
18784;BME280;9520;50.954;6.968;2024-01-30T00:13:39;102185.44;;;15.66;48.49
18784;BME280;9520;50.954;6.968;2024-01-30T00:14:00;102181.94;;;15.61;48.51
18784;BME280;9520;50.954;6.968;2024-01-30T00:14:24;102181.91;;;15.64;48.43
18784;BME280;9520;50.954;6.968;2024-01-30T00:14:46;102184.53;;;15.67;48.29
18784;BME280;9520;50.954;6.968;2024-01-30T00:15:08;102184.53;;;15.69;48.40
18784;BME280;9520;50.954;6.968;2024-01-30T00:15:31;102185.38;;;15.71;48.22
18784;BME280;9520;50.954;6.968;2024-01-30T00:15:54;102184.66;;;15.58;48.47
18784;BME280;9520;50.954;6.968;2024-01-30T00:16:22;102176.72;;;15.50;48.67
18784;BME280;9520;50.954;6.968;2024-01-30T00:16:45;102182.06;;;15.53;48.72
18784;BME280;9520;50.954;6.968;2024-01-30T00:17:07;102177.66;;;15.45;48.80
18784;BME280;9520;50.954;6.968;2024-01-30T00:17:28;102179.53;;;15.35;49.06
18784;BME280;9520;50.954;6.968;2024-01-30T00:17:50;102181.31;;;15.38;48.84
18784;BME280;9520;50.954;6.968;2024-01-30T00:18:14;102178.59;;;15.39;49.01
18784;BME280;9520;50.954;6.968;2024-01-30T00:18:36;102182.13;;;15.41;49.15
18784;BME280;9520;50.954;6.968;2024-01-30T00:18:58;102178.59;;;15.39;49.00
18784;BME280;9520;50.954;6.968;2024-01-30T00:19:20;102176.91;;;15.34;49.13
18784;BME280;9520;50.954;6.968;2024-01-30T00:19:41;102176.03;;;15.32;49.26
18784;BME280;9520;50.954;6.968;2024-01-30T00:20:04;102176.00;;;15.36;49.29
18784;BME280;9520;50.954;6.968;2024-01-30T00:20:27;102168.03;;;15.35;49.16
18784;BME280;9520;50.954;6.968;2024-01-30T00:20:49;102174.25;;;15.34;49.18
18784;BME280;9520;50.954;6.968;2024-01-30T00:21:11;102182.19;;;15.35;49.21
18784;BME280;9520;50.954;6.968;2024-01-30T00:21:33;102184.91;;;15.34;49.15
18784;BME280;9520;50.954;6.968;2024-01-30T00:21:54;102177.13;;;15.12;49.59
18784;BME280;9520;50.954;6.968;2024-01-30T00:22:16;102183.34;;;15.11;49.81
18784;BME280;9520;50.954;6.968;2024-01-30T00:22:38;102177.03;;;15.20;49.65
18784;BME280;9520;50.954;6.968;2024-01-30T00:23:00;102180.00;;;14.88;50.14
18784;BME280;9520;50.954;6.968;2024-01-30T00:23:24;102169.28;;;14.99;50.24
18784;BME280;9520;50.954;6.968;2024-01-30T00:23:46;102172.75;;;15.07;49.83
18784;BME280;9520;50.954;6.968;2024-01-30T00:24:07;102172.59;;;15.22;49.82
18784;BME280;9520;50.954;6.968;2024-01-30T00:24:29;102169.88;;;15.28;49.64
18784;BME280;9520;50.954;6.968;2024-01-30T00:24:51;102184.03;;;15.30;49.41
18784;BME280;9520;50.954;6.968;2024-01-30T00:25:13;102183.13;;;15.31;49.36
18784;BME280;9520;50.954;6.968;2024-01-30T00:25:36;102176.97;;;15.29;49.49
18784;BME280;9520;50.954;6.968;2024-01-30T00:25:57;102176.03;;;15.33;49.34
18784;BME280;9520;50.954;6.968;2024-01-30T00:26:19;102183.13;;;15.33;49.43
18784;BME280;9520;50.954;6.968;2024-01-30T00:26:42;102184.84;;;15.37;49.27
18784;BME280;9520;50.954;6.968;2024-01-30T00:27:04;102177.75;;;15.37;49.41
18784;BME280;9520;50.954;6.968;2024-01-30T00:27:26;102175.06;;;15.40;49.27
18784;BME280;9520;50.954;6.968;2024-01-30T00:27:48;102166.25;;;15.37;49.26
18784;BME280;9520;50.954;6.968;2024-01-30T00:28:10;102179.47;;;15.41;49.11
18784;BME280;9520;50.954;6.968;2024-01-30T00:28:33;102175.03;;;15.43;49.08
18784;BME280;9520;50.954;6.968;2024-01-30T00:28:54;102183.84;;;15.47;48.99
18784;BME280;9520;50.954;6.968;2024-01-30T00:29:16;102177.66;;;15.46;49.10
18784;BME280;9520;50.954;6.968;2024-01-30T00:29:41;102182.94;;;15.52;48.90
18784;BME280;9520;50.954;6.968;2024-01-30T00:30:03;102182.94;;;15.54;48.86
18784;BME280;9520;50.954;6.968;2024-01-30T00:30:26;102180.22;;;15.55;48.74
18784;BME280;9520;50.954;6.968;2024-01-30T00:30:48;102173.16;;;15.54;48.70
18784;BME280;9520;50.954;6.968;2024-01-30T00:31:10;102180.28;;;15.52;48.83
18784;BME280;9520;50.954;6.968;2024-01-30T00:31:34;102175.88;;;15.47;48.78
18784;BME280;9520;50.954;6.968;2024-01-30T00:32:01;102180.28;;;15.52;48.82
18784;BME280;9520;50.954;6.968;2024-01-30T00:32:24;102170.50;;;15.50;48.74
18784;BME280;9520;50.954;6.968;2024-01-30T00:32:45;102172.28;;;15.54;48.76
18784;BME280;9520;50.954;6.968;2024-01-30T00:33:07;102166.19;;;15.43;48.91
18784;BME280;9520;50.954;6.968;2024-01-30T00:33:30;102172.44;;;15.37;49.12
18784;BME280;9520;50.954;6.968;2024-01-30T00:33:52;102175.00;;;15.46;49.05
18784;BME280;9520;50.954;6.968;2024-01-30T00:34:14;102174.09;;;15.49;48.90
18784;BME280;9520;50.954;6.968;2024-01-30T00:34:35;102166.13;;;15.47;48.96
18784;BME280;9520;50.954;6.968;2024-01-30T00:34:58;102172.31;;;15.52;48.67
18784;BME280;9520;50.954;6.968;2024-01-30T00:35:20;102170.66;;;15.36;49.10
18784;BME280;9520;50.954;6.968;2024-01-30T00:35:43;102175.16;;;15.33;49.33
18784;BME280;9520;50.954;6.968;2024-01-30T00:36:06;102178.59;;;15.39;49.16
18784;BME280;9520;50.954;6.968;2024-01-30T00:36:28;102168.78;;;15.46;49.14
18784;BME280;9520;50.954;6.968;2024-01-30T00:36:51;102169.66;;;15.48;49.08
18784;BME280;9520;50.954;6.968;2024-01-30T00:37:14;102174.09;;;15.52;48.90
18784;BME280;9520;50.954;6.968;2024-01-30T00:37:36;102173.19;;;15.51;48.92
18784;BME280;9520;50.954;6.968;2024-01-30T00:37:58;102172.25;;;15.55;48.89
18784;BME280;9520;50.954;6.968;2024-01-30T00:38:19;102165.22;;;15.53;48.76
18784;BME280;9520;50.954;6.968;2024-01-30T00:38:42;102169.63;;;15.54;48.93
18784;BME280;9520;50.954;6.968;2024-01-30T00:39:05;102175.75;;;15.59;48.77
18784;BME280;9520;50.954;6.968;2024-01-30T00:39:28;102172.25;;;15.55;48.69
18784;BME280;9520;50.954;6.968;2024-01-30T00:39:50;102174.00;;;15.58;48.71
18784;BME280;9520;50.954;6.968;2024-01-30T00:40:12;102171.38;;;15.57;48.59
18784;BME280;9520;50.954;6.968;2024-01-30T00:40:37;102167.13;;;15.36;48.92
18784;BME280;9520;50.954;6.968;2024-01-30T00:40:59;102169.72;;;15.43;48.90
18784;BME280;9520;50.954;6.968;2024-01-30T00:41:21;102167.94;;;15.42;49.00
18784;BME280;9520;50.954;6.968;2024-01-30T00:41:43;102167.91;;;15.45;48.98
18784;BME280;9520;50.954;6.968;2024-01-30T00:42:05;102167.00;;;15.46;48.91
18784;BME280;9520;50.954;6.968;2024-01-30T00:42:26;102165.19;;;15.50;48.88
18784;BME280;9520;50.954;6.968;2024-01-30T00:42:49;102170.50;;;15.54;48.84
18784;BME280;9520;50.954;6.968;2024-01-30T00:43:11;102174.03;;;15.55;48.77
18784;BME280;9520;50.954;6.968;2024-01-30T00:43:32;102167.78;;;15.59;48.71
18784;BME280;9520;50.954;6.968;2024-01-30T00:43:54;102166.00;;;15.60;48.60
18784;BME280;9520;50.954;6.968;2024-01-30T00:44:16;102169.47;;;15.65;48.54
18784;BME280;9520;50.954;6.968;2024-01-30T00:44:37;102158.94;;;15.59;48.49
18784;BME280;9520;50.954;6.968;2024-01-30T00:45:00;102166.88;;;15.63;48.44
18784;BME280;9520;50.954;6.968;2024-01-30T00:45:22;102170.41;;;15.64;48.59
18784;BME280;9520;50.954;6.968;2024-01-30T00:45:43;102166.88;;;15.63;48.52
18784;BME280;9520;50.954;6.968;2024-01-30T00:46:05;102166.88;;;15.63;48.40
18784;BME280;9520;50.954;6.968;2024-01-30T00:46:27;102169.53;;;15.62;48.52
18784;BME280;9520;50.954;6.968;2024-01-30T00:46:50;102167.75;;;15.62;48.45
18784;BME280;9520;50.954;6.968;2024-01-30T00:47:11;102167.91;;;15.45;48.66
18784;BME280;9520;50.954;6.968;2024-01-30T00:47:33;102168.91;;;15.35;48.92
18784;BME280;9520;50.954;6.968;2024-01-30T00:47:55;102174.31;;;15.28;49.20
18784;BME280;9520;50.954;6.968;2024-01-30T00:48:16;102169.78;;;15.36;49.33
18784;BME280;9520;50.954;6.968;2024-01-30T00:48:38;102162.66;;;15.39;49.11
18784;BME280;9520;50.954;6.968;2024-01-30T00:49:00;102167.06;;;15.43;48.95
18784;BME280;9520;50.954;6.968;2024-01-30T00:49:22;102175.81;;;15.50;48.97
18784;BME280;9520;50.954;6.968;2024-01-30T00:49:44;102167.88;;;15.53;48.84
18784;BME280;9520;50.954;6.968;2024-01-30T00:50:07;102170.44;;;15.59;48.82
18784;BME280;9520;50.954;6.968;2024-01-30T00:50:28;102170.44;;;15.61;48.46
18784;BME280;9520;50.954;6.968;2024-01-30T00:50:51;102176.56;;;15.64;48.66
18784;BME280;9520;50.954;6.968;2024-01-30T00:51:13;102158.00;;;15.63;48.36
18784;BME280;9520;50.954;6.968;2024-01-30T00:51:34;102173.03;;;15.65;48.51
18784;BME280;9520;50.954;6.968;2024-01-30T00:51:56;102168.59;;;15.66;48.48
18784;BME280;9520;50.954;6.968;2024-01-30T00:52:18;102168.59;;;15.67;48.50
18784;BME280;9520;50.954;6.968;2024-01-30T00:52:40;102167.69;;;15.67;48.52
18784;BME280;9520;50.954;6.968;2024-01-30T00:53:03;102165.94;;;15.64;48.49
18784;BME280;9520;50.954;6.968;2024-01-30T00:53:25;102167.72;;;15.65;48.65
18784;BME280;9520;50.954;6.968;2024-01-30T00:53:48;102175.63;;;15.70;48.31
18784;BME280;9520;50.954;6.968;2024-01-30T00:54:10;102173.88;;;15.69;48.36
18784;BME280;9520;50.954;6.968;2024-01-30T00:54:32;102173.00;;;15.67;48.30
18784;BME280;9520;50.954;6.968;2024-01-30T00:54:54;102163.44;;;15.53;48.60
18784;BME280;9520;50.954;6.968;2024-01-30T00:55:16;102169.66;;;15.52;48.73
18784;BME280;9520;50.954;6.968;2024-01-30T00:55:38;102174.03;;;15.55;48.65
18784;BME280;9520;50.954;6.968;2024-01-30T00:55:59;102168.66;;;15.61;48.61
18784;BME280;9520;50.954;6.968;2024-01-30T00:56:21;102159.78;;;15.62;48.51
18784;BME280;9520;50.954;6.968;2024-01-30T00:56:45;102169.53;;;15.62;48.57
18784;BME280;9520;50.954;6.968;2024-01-30T00:57:07;102158.84;;;15.65;48.46
18784;BME280;9520;50.954;6.968;2024-01-30T00:57:29;102168.56;;;15.69;48.36
18784;BME280;9520;50.954;6.968;2024-01-30T00:57:50;102162.38;;;15.68;48.33
18784;BME280;9520;50.954;6.968;2024-01-30T00:58:12;102167.66;;;15.70;48.34
18784;BME280;9520;50.954;6.968;2024-01-30T00:58:35;102161.44;;;15.71;48.19
18784;BME280;9520;50.954;6.968;2024-01-30T00:58:56;102162.31;;;15.73;48.16
18784;BME280;9520;50.954;6.968;2024-01-30T00:59:18;102162.25;;;15.76;48.11
18784;BME280;9520;50.954;6.968;2024-01-30T00:59:40;102164.88;;;15.79;48.26
18784;BME280;9520;50.954;6.968;2024-01-30T01:00:02;102166.69;;;15.78;48.25
18784;BME280;9520;50.954;6.968;2024-01-30T01:00:26;102162.22;;;15.79;48.21
18784;BME280;9520;50.954;6.968;2024-01-30T01:00:50;102169.41;;;15.72;48.26
18784;BME280;9520;50.954;6.968;2024-01-30T01:01:12;102165.81;;;15.75;48.24
18784;BME280;9520;50.954;6.968;2024-01-30T01:01:34;102166.75;;;15.69;48.18
18784;BME280;9520;50.954;6.968;2024-01-30T01:01:56;102163.25;;;15.69;48.40
18784;BME280;9520;50.954;6.968;2024-01-30T01:02:18;102162.31;;;15.73;48.19
18784;BME280;9520;50.954;6.968;2024-01-30T01:02:40;102160.53;;;15.70;48.31
18784;BME280;9520;50.954;6.968;2024-01-30T01:03:02;102164.16;;;15.68;48.33
18784;BME280;9520;50.954;6.968;2024-01-30T01:03:24;102168.56;;;15.69;48.30
18784;BME280;9520;50.954;6.968;2024-01-30T01:03:46;102165.91;;;15.69;48.26
18784;BME280;9520;50.954;6.968;2024-01-30T01:04:10;102156.13;;;15.71;48.21
18784;BME280;9520;50.954;6.968;2024-01-30T01:04:32;102166.75;;;15.69;48.26
18784;BME280;9520;50.954;6.968;2024-01-30T01:04:54;102169.53;;;15.62;48.46
18784;BME280;9520;50.954;6.968;2024-01-30T01:05:16;102159.78;;;15.62;48.52
18784;BME280;9520;50.954;6.968;2024-01-30T01:05:39;102166.09;;;15.53;48.55
18784;BME280;9520;50.954;6.968;2024-01-30T01:06:00;102162.53;;;15.50;48.79
18784;BME280;9520;50.954;6.968;2024-01-30T01:06:22;102167.78;;;15.59;48.73
18784;BME280;9520;50.954;6.968;2024-01-30T01:06:45;102157.13;;;15.62;48.61
18784;BME280;9520;50.954;6.968;2024-01-30T01:07:07;102166.81;;;15.65;48.44
18784;BME280;9520;50.954;6.968;2024-01-30T01:07:28;102163.38;;;15.57;48.56
18784;BME280;9520;50.954;6.968;2024-01-30T01:07:50;102163.44;;;15.53;48.59
18784;BME280;9520;50.954;6.968;2024-01-30T01:08:12;102164.31;;;15.52;48.62
18784;BME280;9520;50.954;6.968;2024-01-30T01:08:36;102162.56;;;15.51;48.41
18784;BME280;9520;50.954;6.968;2024-01-30T01:08:59;102161.66;;;15.54;48.60
18784;BME280;9520;50.954;6.968;2024-01-30T01:09:25;102171.31;;;15.60;48.67
18784;BME280;9520;50.954;6.968;2024-01-30T01:09:47;102167.81;;;15.54;48.49
18784;BME280;9520;50.954;6.968;2024-01-30T01:10:09;102165.22;;;15.48;48.71
18784;BME280;9520;50.954;6.968;2024-01-30T01:10:32;102156.31;;;15.49;48.92
18784;BME280;9520;50.954;6.968;2024-01-30T01:10:55;102162.59;;;15.45;48.67
18784;BME280;9520;50.954;6.968;2024-01-30T01:11:17;102160.81;;;15.44;48.86
18784;BME280;9520;50.954;6.968;2024-01-30T01:11:39;102170.56;;;15.48;48.81
18784;BME280;9520;50.954;6.968;2024-01-30T01:12:01;102164.31;;;15.49;48.72
18784;BME280;9520;50.954;6.968;2024-01-30T01:12:23;102162.50;;;15.54;48.81
18784;BME280;9520;50.954;6.968;2024-01-30T01:12:45;102162.56;;;15.53;48.77
18784;BME280;9520;50.954;6.968;2024-01-30T01:13:07;102158.06;;;15.57;48.54
18784;BME280;9520;50.954;6.968;2024-01-30T01:13:29;102161.59;;;15.57;48.69
18784;BME280;9520;50.954;6.968;2024-01-30T01:13:50;102166.91;;;15.59;48.63
18784;BME280;9520;50.954;6.968;2024-01-30T01:14:12;102166.88;;;15.60;48.44
18784;BME280;9520;50.954;6.968;2024-01-30T01:14:35;102159.91;;;15.47;48.67
18784;BME280;9520;50.954;6.968;2024-01-30T01:14:57;102158.06;;;15.55;48.77
18784;BME280;9520;50.954;6.968;2024-01-30T01:15:19;102156.31;;;15.55;48.56
18784;BME280;9520;50.954;6.968;2024-01-30T01:15:41;102164.28;;;15.55;48.73
18784;BME280;9520;50.954;6.968;2024-01-30T01:16:03;102165.09;;;15.61;48.79
18784;BME280;9520;50.954;6.968;2024-01-30T01:16:25;102161.50;;;15.65;48.66
18784;BME280;9520;50.954;6.968;2024-01-30T01:16:47;102158.00;;;15.60;48.52
18784;BME280;9520;50.954;6.968;2024-01-30T01:17:10;102171.31;;;15.60;48.44
18784;BME280;9520;50.954;6.968;2024-01-30T01:17:31;102165.09;;;15.62;48.59
18784;BME280;9520;50.954;6.968;2024-01-30T01:17:53;102169.47;;;15.65;48.62
18784;BME280;9520;50.954;6.968;2024-01-30T01:18:15;102161.53;;;15.63;48.68
18784;BME280;9520;50.954;6.968;2024-01-30T01:18:37;102162.44;;;15.64;48.59
18784;BME280;9520;50.954;6.968;2024-01-30T01:18:59;102165.91;;;15.69;48.51
18784;BME280;9520;50.954;6.968;2024-01-30T01:19:22;102157.06;;;15.67;48.28
18784;BME280;9520;50.954;6.968;2024-01-30T01:19:44;102162.38;;;15.67;48.47
18784;BME280;9520;50.954;6.968;2024-01-30T01:20:07;102161.44;;;15.69;48.29
18784;BME280;9520;50.954;6.968;2024-01-30T01:20:29;102162.31;;;15.70;48.25
18784;BME280;9520;50.954;6.968;2024-01-30T01:20:51;102147.31;;;15.64;48.23
18784;BME280;9520;50.954;6.968;2024-01-30T01:43:25;102134.31;;;15.38;48.67
18784;BME280;9520;50.954;6.968;2024-01-30T01:43:48;102163.44;;;15.53;48.72
18784;BME280;9520;50.954;6.968;2024-01-30T01:44:10;102169.63;;;15.54;48.69
18784;BME280;9520;50.954;6.968;2024-01-30T01:44:32;102158.09;;;15.50;48.63
18784;BME280;9520;50.954;6.968;2024-01-30T01:44:53;102160.78;;;15.53;48.77
18784;BME280;9520;50.954;6.968;2024-01-30T01:45:15;102158.97;;;15.55;48.56
18784;BME280;9520;50.954;6.968;2024-01-30T01:45:36;102168.69;;;15.58;48.72
18784;BME280;9520;50.954;6.968;2024-01-30T01:45:59;102157.13;;;15.59;48.53
18784;BME280;9520;50.954;6.968;2024-01-30T01:46:21;102160.69;;;15.60;48.56
18784;BME280;9520;50.954;6.968;2024-01-30T01:46:44;102159.78;;;15.59;48.53
18784;BME280;9520;50.954;6.968;2024-01-30T01:47:06;102138.69;;;15.42;48.54
18784;BME280;9520;50.954;6.968;2024-01-30T01:47:28;102163.38;;;15.57;48.50
18784;BME280;9520;50.954;6.968;2024-01-30T01:47:51;102162.44;;;15.61;48.65
18784;BME280;9520;50.954;6.968;2024-01-30T01:48:14;102158.00;;;15.61;48.58
18784;BME280;9520;50.954;6.968;2024-01-30T01:48:37;102166.94;;;15.55;48.61
18784;BME280;9520;50.954;6.968;2024-01-30T01:49:02;102167.06;;;15.43;48.68
18784;BME280;9520;50.954;6.968;2024-01-30T01:49:25;102158.09;;;15.50;48.63
18784;BME280;9520;50.954;6.968;2024-01-30T01:49:49;102159.84;;;15.54;48.60
18784;BME280;9520;50.954;6.968;2024-01-30T01:50:12;102161.59;;;15.57;48.66
18784;BME280;9520;50.954;6.968;2024-01-30T01:50:34;102157.25;;;15.51;48.66
18784;BME280;9520;50.954;6.968;2024-01-30T01:50:57;102164.31;;;15.49;48.67
18784;BME280;9520;50.954;6.968;2024-01-30T01:51:20;102167.81;;;15.56;48.79
18784;BME280;9520;50.954;6.968;2024-01-30T01:51:43;102160.66;;;15.61;48.76
18784;BME280;9520;50.954;6.968;2024-01-30T01:52:06;102158.06;;;15.58;48.38
18784;BME280;9520;50.954;6.968;2024-01-30T01:52:28;102161.56;;;15.62;48.59
18784;BME280;9520;50.954;6.968;2024-01-30T01:52:50;102149.34;;;15.42;48.59
18784;BME280;9520;50.954;6.968;2024-01-30T01:53:12;102159.78;;;15.59;48.63
18784;BME280;9520;50.954;6.968;2024-01-30T01:53:36;102167.75;;;15.61;48.48
18784;BME280;9520;50.954;6.968;2024-01-30T01:53:59;102163.28;;;15.66;48.61
18784;BME280;9520;50.954;6.968;2024-01-30T01:54:25;102130.69;;;15.45;48.55
18784;BME280;9520;50.954;6.968;2024-01-30T01:54:48;102162.44;;;15.64;48.40
18784;BME280;9520;50.954;6.968;2024-01-30T01:55:10;102161.53;;;15.63;48.40
18784;BME280;9520;50.954;6.968;2024-01-30T01:55:32;102160.63;;;15.64;48.54
18784;BME280;9520;50.954;6.968;2024-01-30T01:55:54;102160.59;;;15.67;48.29
18784;BME280;9520;50.954;6.968;2024-01-30T01:56:17;102154.41;;;15.65;48.40
18784;BME280;9520;50.954;6.968;2024-01-30T01:56:39;102148.31;;;15.59;48.32
18784;BME280;9520;50.954;6.968;2024-01-30T01:57:02;102161.53;;;15.63;48.34
18784;BME280;9520;50.954;6.968;2024-01-30T01:57:24;102157.13;;;15.62;48.42
18784;BME280;9520;50.954;6.968;2024-01-30T01:57:46;102154.41;;;15.65;48.40
18784;BME280;9520;50.954;6.968;2024-01-30T01:58:08;102160.72;;;15.57;48.60
18784;BME280;9520;50.954;6.968;2024-01-30T01:58:35;102157.19;;;15.54;48.51
18784;BME280;9520;50.954;6.968;2024-01-30T01:59:00;102164.34;;;15.48;48.69
18784;BME280;9520;50.954;6.968;2024-01-30T01:59:23;102148.41;;;15.48;48.81
18784;BME280;9520;50.954;6.968;2024-01-30T01:59:46;102155.56;;;15.40;48.78
18784;BME280;9520;50.954;6.968;2024-01-30T02:00:09;102162.59;;;15.47;48.79
18784;BME280;9520;50.954;6.968;2024-01-30T02:00:32;102155.56;;;15.41;48.83
18784;BME280;9520;50.954;6.968;2024-01-30T02:00:54;102150.28;;;15.35;48.95
18784;BME280;9520;50.954;6.968;2024-01-30T02:01:18;102152.94;;;15.37;48.94
18784;BME280;9520;50.954;6.968;2024-01-30T02:01:41;102159.09;;;15.43;48.98
18784;BME280;9520;50.954;6.968;2024-01-30T02:02:04;102131.72;;;15.34;48.65
18784;BME280;9520;50.954;6.968;2024-01-30T02:02:30;102161.69;;;15.48;48.86
18784;BME280;9520;50.954;6.968;2024-01-30T02:02:54;102148.38;;;15.52;48.80
18784;BME280;9520;50.954;6.968;2024-01-30T02:03:18;102152.75;;;15.55;48.61
18784;BME280;9520;50.954;6.968;2024-01-30T02:03:40;102153.63;;;15.55;48.70
18784;BME280;9520;50.954;6.968;2024-01-30T02:04:02;102144.88;;;15.44;48.64
18784;BME280;9520;50.954;6.968;2024-01-30T02:04:24;102152.84;;;15.44;48.96
18784;BME280;9520;50.954;6.968;2024-01-30T02:04:47;102150.22;;;15.41;48.86
18784;BME280;9520;50.954;6.968;2024-01-30T02:05:09;102148.44;;;15.43;48.96
18784;BME280;9520;50.954;6.968;2024-01-30T02:05:31;102150.22;;;15.43;49.04
18784;BME280;9520;50.954;6.968;2024-01-30T02:05:53;102151.06;;;15.45;48.98
18784;BME280;9520;50.954;6.968;2024-01-30T02:06:17;102154.59;;;15.47;48.99
18784;BME280;9520;50.954;6.968;2024-01-30T02:06:40;102149.25;;;15.50;48.80
18784;BME280;9520;50.954;6.968;2024-01-30T02:07:02;102153.69;;;15.52;48.83
18784;BME280;9520;50.954;6.968;2024-01-30T02:07:24;102151.03;;;15.52;48.79
18784;BME280;9520;50.954;6.968;2024-01-30T02:07:46;102154.56;;;15.50;48.63
18784;BME280;9520;50.954;6.968;2024-01-30T02:13:51;102148.41;;;15.46;48.91
18784;BME280;9520;50.954;6.968;2024-01-30T02:14:12;102147.56;;;15.41;48.83
18784;BME280;9520;50.954;6.968;2024-01-30T02:14:44;102142.19;;;15.46;48.91
18784;BME280;9520;50.954;6.968;2024-01-30T02:15:06;102143.97;;;15.48;48.97
18784;BME280;9520;50.954;6.968;2024-01-30T02:15:29;102144.00;;;15.44;48.82
18784;BME280;9520;50.954;6.968;2024-01-30T02:15:51;102149.41;;;15.38;49.04
18784;BME280;9520;50.954;6.968;2024-01-30T02:16:13;102143.19;;;15.37;49.04
18784;BME280;9520;50.954;6.968;2024-01-30T02:16:35;102142.25;;;15.40;49.09
18784;BME280;9520;50.954;6.968;2024-01-30T02:16:58;102143.16;;;15.40;49.03
18784;BME280;9520;50.954;6.968;2024-01-30T02:17:19;102137.81;;;15.40;49.25
18784;BME280;9520;50.954;6.968;2024-01-30T02:17:41;102149.34;;;15.42;48.87
18784;BME280;9520;50.954;6.968;2024-01-30T02:18:04;102136.00;;;15.45;48.83
18784;BME280;9520;50.954;6.968;2024-01-30T02:18:26;102140.41;;;15.48;48.97
18784;BME280;9520;50.954;6.968;2024-01-30T02:18:47;102144.78;;;15.50;48.89
18784;BME280;9520;50.954;6.968;2024-01-30T02:19:09;102151.94;;;15.48;48.83
18784;BME280;9520;50.954;6.968;2024-01-30T02:19:32;102146.63;;;15.48;48.84
18784;BME280;9520;50.954;6.968;2024-01-30T02:19:54;102145.84;;;15.37;48.76
18784;BME280;9520;50.954;6.968;2024-01-30T02:20:16;102139.63;;;15.38;48.97
18784;BME280;9520;50.954;6.968;2024-01-30T02:20:38;102150.22;;;15.43;48.91
18784;BME280;9520;50.954;6.968;2024-01-30T02:21:05;102142.19;;;15.47;48.85
18784;BME280;9520;50.954;6.968;2024-01-30T02:21:26;102133.41;;;15.41;48.73
18784;BME280;9520;50.954;6.968;2024-01-30T02:21:49;102140.38;;;15.49;48.82
18784;BME280;9520;50.954;6.968;2024-01-30T02:22:11;102146.63;;;15.48;48.77
18784;BME280;9520;50.954;6.968;2024-01-30T02:22:34;102146.59;;;15.53;48.64
18784;BME280;9520;50.954;6.968;2024-01-30T02:22:58;102151.94;;;15.45;48.77
18784;BME280;9520;50.954;6.968;2024-01-30T02:23:24;102144.91;;;15.43;48.96
18784;BME280;9520;50.954;6.968;2024-01-30T02:23:47;102145.75;;;15.45;48.81
18784;BME280;9520;50.954;6.968;2024-01-30T02:24:09;102145.72;;;15.48;48.92
18784;BME280;9520;50.954;6.968;2024-01-30T02:24:31;102151.03;;;15.54;48.83
18784;BME280;9520;50.954;6.968;2024-01-30T02:24:54;102154.53;;;15.56;48.83
18784;BME280;9520;50.954;6.968;2024-01-30T02:25:16;102152.75;;;15.55;48.83
18784;BME280;9520;50.954;6.968;2024-01-30T02:25:39;102148.31;;;15.55;48.71
18784;BME280;9520;50.954;6.968;2024-01-30T02:26:05;102143.00;;;15.57;48.77
18784;BME280;9520;50.954;6.968;2024-01-30T02:26:27;102138.56;;;15.58;48.65
18784;BME280;9520;50.954;6.968;2024-01-30T02:26:48;102142.03;;;15.61;48.65